Brownsville, TX

2:42 PM CDT on March 28, 2017 (GMT -0500)
Brownsville-South Padre I International | | Change Station

Elev 20 ft 25.91 °N, 97.43 °W | Updated 49 minutes ago

Partly Cloudy
Partly Cloudy
83 °F
Feels Like 87 °F
N
25
Wind Variable Wind from SSE
Gusts 33 mph

Today
High -- | Low -- °F
--% Chance of Precip.
Yesterday
High -- | Low -- °F
Precip. -- in
Pressure 29.75 in
Visibility 10.0 miles
Clouds Scattered Clouds 2800 ft
Heat Index 87 °F
Dew Point 70 °F
Humidity 65%
Rainfall 0.00 in
Snow Depth Not available.
7:24 AM 7:44 PM
New Moon, 1% visible
METAR KBRO 281853Z 16022G29KT 10SM SCT028 28/21 A2975 RMK AO2 PK WND 15031/1831 SLP074 T02830211
Pressure 29.75 in
Visibility 10.0 miles
Clouds Scattered Clouds 2800 ft
Heat Index 87 °F
Dew Point 70 °F
Humidity 65%
Rainfall 0.00 in
Snow Depth Not available.
7:24 AM 7:44 PM
New Moon, 1% visible
METAR KBRO 281853Z 16022G29KT 10SM SCT028 28/21 A2975 RMK AO2 PK WND 15031/1831 SLP074 T02830211

Get Severe Weather Alerts

Thanks for signing up!

Be on the lookout for a verification email in your inbox.

You'll start receiving the daily forecast at 8 AM.

×

10-Day Weather Forecast

Almanac

Astronomy

Mar. 28, 2017 Rise Set
Actual Time
Civil Twilight
Nautical Twilight
Astronomical Twilight
Moon
Length of Visible Light
Length of Day
Tomorrow will be .
, % of the Moon is Illuminated

Today's Extremes

State Highs State Lows

Community

WunderPhotos

Upload Photos

1,962,540 photos uploaded!

WunderBlog® & News

Nearby

Air Quality

  Air Quality AQ Index Pollutant
Not available.

Snow Depth

Station Depth Elevation

Earthquake Activity

City Distance Mag. Time & Date
Minimum magnitude displayed is 2.5.

Earthquake Activity

City Distance Mag. Time & Date
Minimum magnitude displayed is 2.5.

Coastal Water Temperatures

Place Temperature

Stations

Nearby Weather Stations

Station Location Temp. Windchill Dew Point Humidity Wind Precip. Elev Updated Type
                   

Watches & Warnings

There are currently no watches in effect.